Time;durP1;ratioP1;P1;durP2;ratioP2;P2;SDS_P1;SDS_P2;PMS_P1;PMS_P2;Temp;Humidity;BMP_temperature;BMP_pressure;BME280_temperature;BME280_humidity;BME280_pressure;Samples;Min_cycle;Max_cycle;Signal;HPM_P1;HPM_P2
2022/10/28 00:02:18;;;;;;;;;;;;;;;;;;4856310;29;20033;-66
2022/10/28 00:04:44;;;;;;;17.65;7.03;;;;;;;;;;4850469;29;19971;-65
2022/10/28 00:07:10;;;;;;;;;;;;;;;;;;4856667;29;20124;-65
2022/10/28 00:09:37;;;;;;;16.38;6.47;;;;;;;;;;4854830;29;19920;-65
2022/10/28 00:12:03;;;;;;;15.70;6.93;;;;;;;;;;4857114;29;20382;-66
2022/10/28 00:14:29;;;;;;;15.75;7.15;;;;;;;;;;4856388;29;20037;-65
2022/10/28 00:16:55;;;;;;;;;;;;;;;;;;4857118;29;20033;-68
2022/10/28 00:19:21;;;;;;;13.50;6.03;;;;;;;;;;4857084;29;20380;-65
2022/10/28 00:21:47;;;;;;;16.40;6.20;;;;;;;;;;4860351;29;20029;-65
2022/10/28 00:24:13;;;;;;;;;;;;;;;;;;4857078;29;20632;-66
2022/10/28 00:26:41;;;;;;;17.00;7.00;;;;;;;;;;4851796;29;20352;-68
2022/10/28 00:29:09;;;;;;;14.20;6.80;;;;;;;;;;4855794;29;20548;-67
2022/10/28 00:31:35;;;;;;;15.05;6.45;;;;;;;;;;4852155;29;20359;-67
2022/10/28 00:34:03;;;;;;;13.45;5.88;;;;;;;;;;4854515;29;20082;-67
2022/10/28 00:36:33;;;;;;;13.98;5.40;;;;;;;;;;4848478;29;20032;-66
2022/10/28 00:38:59;;;;;;;15.70;5.55;;;;;;;;;;4855499;29;20037;-66
2022/10/28 00:41:31;;;;;;;12.18;5.32;;;;;;;;;;4852062;29;20036;-66
2022/10/28 00:43:58;;;;;;;16.35;5.72;;;;;;;;;;4855195;29;20564;-66
2022/10/28 00:46:45;;;;;;;15.23;5.72;;;;;;;;;;4853546;29;20072;-66
2022/10/28 00:49:18;;;;;;;13.45;5.68;;;;;;;;;;4853839;29;20541;-66
2022/10/28 00:51:46;;;;;;;13.55;5.00;;;;;;;;;;4853392;29;20037;-68
2022/10/28 00:54:16;;;;;;;13.70;5.32;;;;;;;;;;4853887;29;20053;-66
2022/10/28 00:56:44;;;;;;;15.05;5.85;;;;;;;;;;4853566;29;20073;-65
2022/10/28 00:59:17;;;;;;;16.50;5.18;;;;;;;;;;4854790;29;20364;-66
2022/10/28 01:01:43;;;;;;;18.65;5.85;;;;;;;;;;4852514;29;20381;-65
2022/10/28 01:04:10;;;;;;;14.88;5.47;;;;;;;;;;4854544;29;20065;-68
2022/10/28 01:06:36;;;;;;;14.93;5.90;;;;;;;;;;4851415;29;20036;-68
2022/10/28 01:09:03;;;;;;;13.35;5.30;;;;;;;;;;4855415;29;20111;-65
2022/10/28 01:11:32;;;;;;;12.80;5.47;;;;;;;;;;4852099;29;20029;-67
2022/10/28 01:14:15;;;;;;;14.75;4.95;;;;;;;;;;4852916;29;20135;-68
2022/10/28 01:16:56;;;;;;;14.98;5.93;;;;;;;;;;4852402;29;20048;-69
2022/10/28 01:19:34;;;;;;;18.30;5.82;;;;;;;;;;4850002;29;20107;-67
2022/10/28 01:22:03;;;;;;;18.48;5.75;;;;;;;;;;4853463;29;20092;-67
2022/10/28 01:24:35;;;;;;;15.70;5.90;;;;;;;;;;4853673;29;20040;-66
2022/10/28 01:27:01;;;;;;;15.35;5.38;;;;;;;;;;4856253;29;20068;-67
2022/10/28 01:29:52;;;;;;;13.98;5.90;;;;;;;;;;4855512;29;20040;-66
2022/10/28 01:32:21;;;;;;;15.55;6.07;;;;;;;;;;4859315;29;20037;-66
2022/10/28 01:34:47;;;;;;;14.63;5.72;;;;;;;;;;4859170;29;20044;-66
2022/10/28 01:37:13;;;;;;;;;;;;;;;;;;4862285;29;20029;-66
2022/10/28 01:39:42;;;;;;;14.18;5.57;;;;;;;;;;4850731;29;20359;-66
2022/10/28 01:42:08;;;;;;;18.17;5.93;;;;;;;;;;4854392;29;20041;-68
2022/10/28 01:44:45;;;;;;;15.57;5.65;;;;;;;;;;4853400;29;20041;-67
2022/10/28 01:47:13;;;;;;;14.48;5.65;;;;;;;;;;4854000;29;20467;-67
2022/10/28 01:49:47;;;;;;;17.48;5.90;;;;;;;;;;4855737;29;20053;-65
2022/10/28 01:52:16;;;;;;;15.88;5.57;;;;;;;;;;4855886;29;20072;-67
2022/10/28 01:54:44;;;;;;;15.45;5.25;;;;;;;;;;4852260;29;20060;-66
2022/10/28 01:57:11;;;;;;;15.60;5.45;;;;;;;;;;4857962;29;20050;-67
2022/10/28 01:59:38;;;;;;;18.20;6.15;;;;;;;;;;4854273;29;20203;-67
2022/10/28 02:02:04;;;;;;;15.40;5.60;;;;;;;;;;4858188;29;20168;-67
2022/10/28 02:04:30;;;;;;;;;;;;;;;;;;4852054;29;20429;-66
2022/10/28 02:06:57;;;;;;;14.13;5.28;;;;;;;;;;4854932;29;20306;-66
2022/10/28 02:09:30;;;;;;;12.77;5.13;;;;;;;;;;4852123;29;20051;-66
2022/10/28 02:11:56;;;;;;;14.90;5.40;;;;;;;;;;4855733;29;20613;-66
2022/10/28 02:14:41;;;;;;;15.18;5.53;;;;;;;;;;4852187;29;20033;-66
2022/10/28 02:17:19;;;;;;;14.60;4.85;;;;;;;;;;4854728;29;20043;-67
2022/10/28 02:19:53;;;;;;;14.13;4.85;;;;;;;;;;4858131;29;20347;-66
2022/10/28 02:22:26;;;;;;;13.55;5.07;;;;;;;;;;4854507;29;20036;-66
2022/10/28 02:25:05;;;;;;;13.10;4.93;;;;;;;;;;4855077;29;20717;-66
2022/10/28 02:27:31;;;;;;;13.70;4.53;;;;;;;;;;4853114;29;20377;-66
2022/10/28 02:30:01;;;;;;;12.98;4.90;;;;;;;;;;4854751;29;20072;-66
2022/10/28 02:32:30;;;;;;;14.95;4.70;;;;;;;;;;4855467;29;20199;-66
2022/10/28 02:34:59;;;;;;;13.90;4.30;;;;;;;;;;4867466;29;20678;-66
2022/10/28 02:37:33;;;;;;;11.73;4.00;;;;;;;;;;4859846;29;20025;-69
2022/10/28 02:40:02;;;;;;;14.52;4.10;;;;;;;;;;4858595;29;20033;-66
2022/10/28 02:42:30;;;;;;;13.52;4.15;;;;;;;;;;4853631;29;20481;-66
2022/10/28 02:44:59;;;;;;;11.98;4.15;;;;;;;;;;4860030;29;20442;-66
2022/10/28 02:47:28;;;;;;;14.32;4.78;;;;;;;;;;4857522;29;20037;-66
2022/10/28 02:49:57;;;;;;;15.80;4.35;;;;;;;;;;4858935;29;20044;-66
2022/10/28 02:52:25;;;;;;;12.98;4.78;;;;;;;;;;4860209;29;20040;-66
2022/10/28 02:55:03;;;;;;;14.25;5.10;;;;;;;;;;4866094;29;20473;-66
2022/10/28 02:57:32;;;;;;;14.18;4.88;;;;;;;;;;4859112;29;20106;-66
2022/10/28 03:00:00;;;;;;;14.55;5.25;;;;;;;;;;4868399;29;20160;-66
2022/10/28 03:02:27;;;;;;;12.90;4.90;;;;;;;;;;4864789;29;20029;-66
2022/10/28 03:04:54;;;;;;;12.38;5.07;;;;;;;;;;4865252;29;20051;-66
2022/10/28 03:07:22;;;;;;;15.00;5.05;;;;;;;;;;4866486;29;20192;-66
2022/10/28 03:09:50;;;;;;;13.60;4.90;;;;;;;;;;4867600;29;20071;-68
2022/10/28 03:12:16;;;;;;;12.93;4.85;;;;;;;;;;4868187;29;20286;-65
2022/10/28 03:14:42;;;;;;;15.10;5.10;;;;;;;;;;4866725;29;21393;-66
2022/10/28 03:17:09;;;;;;;15.30;4.82;;;;;;;;;;4869098;29;20041;-67
2022/10/28 03:19:35;;;;;;;13.50;5.07;;;;;;;;;;4861006;29;20458;-66
2022/10/28 03:22:01;;;;;;;;;;;;;;;;;;4854028;29;20040;-66
2022/10/28 03:24:27;;;;;;;12.85;5.25;;;;;;;;;;4850991;29;19916;-66
2022/10/28 03:26:53;;;;;;;;;;;;;;;;;;4855609;29;20132;-66
2022/10/28 03:29:19;;;;;;;13.73;5.03;;;;;;;;;;4858139;29;19920;-66
2022/10/28 03:31:46;;;;;;;14.10;4.47;;;;;;;;;;4854003;29;20117;-65
2022/10/28 03:34:12;;;;;;;;;;;;;;;;;;4853185;29;20694;-65
2022/10/28 03:36:38;;;;;;;13.02;4.50;;;;;;;;;;4852860;29;19915;-66
2022/10/28 03:39:04;;;;;;;12.88;4.55;;;;;;;;;;4851714;29;20426;-66
2022/10/28 03:41:30;;;;;;;13.43;4.32;;;;;;;;;;4848967;29;20044;-66
2022/10/28 03:43:56;;;;;;;13.43;4.60;;;;;;;;;;4855054;29;20077;-66
2022/10/28 03:46:22;;;;;;;;;;;;;;;;;;4850132;29;20065;-64
2022/10/28 03:48:48;;;;;;;10.88;4.47;;;;;;;;;;4857113;29;20021;-65
2022/10/28 03:51:14;;;;;;;;;;;;;;;;;;4852626;29;20040;-66
2022/10/28 03:53:40;;;;;;;14.23;4.70;;;;;;;;;;4852124;29;19924;-68
2022/10/28 03:56:06;;;;;;;;;;;;;;;;;;4850813;29;20128;-68
2022/10/28 03:58:35;;;;;;;12.73;4.72;;;;;;;;;;4855845;29;20111;-64
2022/10/28 04:01:02;;;;;;;12.52;4.78;;;;;;;;;;4850732;29;20055;-67
2022/10/28 04:03:28;;;;;;;;;;;;;;;;;;4847657;29;20033;-65
2022/10/28 04:05:54;;;;;;;14.05;4.93;;;;;;;;;;4857644;29;20367;-67
2022/10/28 04:08:20;;;;;;;;;;;;;;;;;;4849338;29;20445;-65
2022/10/28 04:10:46;;;;;;;13.43;4.60;;;;;;;;;;4847416;29;19924;-65
2022/10/28 04:13:13;;;;;;;16.10;5.22;;;;;;;;;;4846583;29;20262;-65
2022/10/28 04:15:39;;;;;;;12.45;4.57;;;;;;;;;;4848638;29;20034;-66
2022/10/28 04:18:05;;;;;;;12.80;4.57;;;;;;;;;;4853506;29;20037;-66
2022/10/28 04:20:32;;;;;;;15.20;5.07;;;;;;;;;;4846504;29;20033;-66
2022/10/28 04:22:58;;;;;;;12.80;4.30;;;;;;;;;;4851209;29;20045;-65
2022/10/28 04:25:24;;;;;;;;;;;;;;;;;;4842919;29;20030;-66
2022/10/28 04:27:50;;;;;;;13.73;4.60;;;;;;;;;;4858607;29;19916;-66
2022/10/28 04:30:16;;;;;;;14.35;4.47;;;;;;;;;;4855698;29;20041;-66
2022/10/28 04:32:43;;;;;;;13.02;4.63;;;;;;;;;;4851710;29;20080;-68
2022/10/28 04:35:10;;;;;;;13.18;4.40;;;;;;;;;;4853703;29;20352;-65
2022/10/28 04:37:37;;;;;;;13.13;4.50;;;;;;;;;;4851526;29;20477;-68
2022/10/28 04:40:04;;;;;;;18.70;4.75;;;;;;;;;;4852878;29;20041;-65
2022/10/28 04:42:30;;;;;;;15.40;4.53;;;;;;;;;;4854426;29;20453;-66
2022/10/28 04:44:56;;;;;;;11.65;4.15;;;;;;;;;;4849235;29;20036;-65
2022/10/28 04:47:22;;;;;;;;;;;;;;;;;;4847922;29;20064;-68
2022/10/28 04:49:49;;;;;;;12.63;4.07;;;;;;;;;;4852921;29;20007;-66
2022/10/28 04:52:15;;;;;;;13.15;4.45;;;;;;;;;;4851210;29;20033;-66
2022/10/28 04:54:41;;;;;;;;;;;;;;;;;;4850770;29;20171;-66
2022/10/28 04:57:08;;;;;;;13.57;4.68;;;;;;;;;;4863259;29;20356;-66
2022/10/28 04:59:34;;;;;;;13.88;4.45;;;;;;;;;;4846685;29;20417;-66
2022/10/28 05:02:01;;;;;;;10.23;4.20;;;;;;;;;;4852384;29;20466;-65
2022/10/28 05:04:27;;;;;;;12.85;4.43;;;;;;;;;;4853398;29;20065;-66
2022/10/28 05:06:53;;;;;;;13.77;4.40;;;;;;;;;;4849149;29;20037;-66
2022/10/28 05:09:19;;;;;;;;;;;;;;;;;;4852741;29;20036;-67
2022/10/28 05:11:45;;;;;;;14.77;4.70;;;;;;;;;;4848342;29;19916;-67
2022/10/28 05:14:11;;;;;;;;;;;;;;;;;;4850903;29;20112;-67
2022/10/28 05:16:37;;;;;;;12.45;4.10;;;;;;;;;;4848271;29;19920;-68
2022/10/28 05:19:04;;;;;;;10.85;3.85;;;;;;;;;;4857760;29;20146;-66
2022/10/28 05:21:30;;;;;;;;;;;;;;;;;;4856880;29;20029;-67
2022/10/28 05:23:56;;;;;;;11.95;4.28;;;;;;;;;;4858573;29;20231;-67
2022/10/28 05:26:22;;;;;;;;;;;;;;;;;;4851481;29;20051;-67
2022/10/28 05:28:49;;;;;;;12.60;4.45;;;;;;;;;;4861200;29;19994;-66
2022/10/28 05:31:15;;;;;;;15.68;4.57;;;;;;;;;;4859296;29;20036;-66
2022/10/28 05:33:41;;;;;;;;;;;;;;;;;;4855852;29;22944;-66
2022/10/28 05:36:07;;;;;;;13.95;4.07;;;;;;;;;;4859051;29;19955;-67
2022/10/28 05:38:33;;;;;;;;;;;;;;;;;;4857472;29;20292;-67
2022/10/28 05:41:00;;;;;;;16.10;4.82;;;;;;;;;;4857339;29;19978;-67
2022/10/28 05:43:27;;;;;;;16.13;5.68;;;;;;;;;;4851437;29;20564;-66
2022/10/28 05:45:54;;;;;;;13.60;4.63;;;;;;;;;;4859888;29;20049;-66
2022/10/28 05:48:20;;;;;;;14.93;4.93;;;;;;;;;;4858528;29;20061;-66
2022/10/28 05:50:47;;;;;;;13.60;4.70;;;;;;;;;;4856154;29;20033;-66
2022/10/28 05:53:13;;;;;;;;;;;;;;;;;;4855321;29;20161;-66
2022/10/28 05:55:39;;;;;;;13.20;4.70;;;;;;;;;;4853296;29;20018;-66
2022/10/28 05:58:05;;;;;;;14.65;5.47;;;;;;;;;;4859964;29;20092;-66
2022/10/28 06:00:31;;;;;;;24.67;5.75;;;;;;;;;;4860639;29;20120;-67
2022/10/28 06:03:08;;;;;;;19.45;6.28;;;;;;;;;;4855465;29;20033;-67
2022/10/28 06:05:34;;;;;;;16.00;5.78;;;;;;;;;;4856269;29;20065;-66
2022/10/28 06:08:01;;;;;;;18.70;6.20;;;;;;;;;;4851170;29;20029;-67
2022/10/28 06:10:27;;;;;;;;;;;;;;;;;;4850059;29;20045;-67
2022/10/28 06:12:55;;;;;;;17.63;6.75;;;;;;;;;;4854354;29;19915;-66
2022/10/28 06:15:21;;;;;;;19.80;7.10;;;;;;;;;;4857334;29;20060;-66
2022/10/28 06:17:48;;;;;;;;;;;;;;;;;;4857264;29;20476;-67
2022/10/28 06:20:14;;;;;;;19.75;6.82;;;;;;;;;;4868026;29;19955;-66
2022/10/28 06:22:47;;;;;;;20.17;7.50;;;;;;;;;;4853441;29;20369;-67
2022/10/28 06:25:14;;;;;;;17.98;7.32;;;;;;;;;;4853577;29;20037;-67
2022/10/28 06:27:40;;;;;;;;;;;;;;;;;;4854180;29;20045;-67
2022/10/28 06:30:06;;;;;;;18.10;6.13;;;;;;;;;;4856046;29;19988;-66
2022/10/28 06:32:33;;;;;;;19.88;6.88;;;;;;;;;;4852833;29;20139;-66
2022/10/28 06:35:03;;;;;;;24.52;7.80;;;;;;;;;;4855438;29;20032;-67
2022/10/28 06:37:29;;;;;;;18.42;6.63;;;;;;;;;;4851979;29;20041;-68
2022/10/28 06:39:57;;;;;;;21.55;7.50;;;;;;;;;;4857018;29;20185;-66
2022/10/28 06:42:23;;;;;;;20.33;7.75;;;;;;;;;;4853690;29;20032;-66
2022/10/28 06:44:51;;;;;;;21.27;6.90;;;;;;;;;;4857506;29;20032;-66
2022/10/28 06:47:17;;;;;;;20.65;6.63;;;;;;;;;;4857198;29;20037;-66
2022/10/28 06:49:43;;;;;;;;;;;;;;;;;;4855900;29;20445;-66
2022/10/28 06:52:09;;;;;;;29.77;7.25;;;;;;;;;;4852877;29;19959;-66
2022/10/28 06:54:35;;;;;;;23.95;6.80;;;;;;;;;;4849781;29;20525;-66
2022/10/28 06:57:01;;;;;;;18.23;5.90;;;;;;;;;;4857682;29;20044;-66
2022/10/28 06:59:27;;;;;;;17.02;5.82;;;;;;;;;;4851979;29;20088;-67
2022/10/28 07:01:53;;;;;;;;;;;;;;;;;;4855388;29;20032;-66
2022/10/28 07:04:19;;;;;;;15.82;5.40;;;;;;;;;;4853473;29;19947;-66
2022/10/28 07:06:45;;;;;;;21.77;5.80;;;;;;;;;;4857322;29;20504;-66
2022/10/28 07:09:11;;;;;;;;;;;;;;;;;;4857050;29;20060;-65
2022/10/28 07:11:37;;;;;;;20.40;6.07;;;;;;;;;;4854001;29;20411;-68
2022/10/28 07:14:03;;;;;;;13.82;5.15;;;;;;;;;;4856235;29;20402;-68
2022/10/28 07:16:29;;;;;;;15.23;5.68;;;;;;;;;;4857038;29;20044;-67
2022/10/28 07:18:56;;;;;;;19.92;5.68;;;;;;;;;;4853969;29;20108;-68
2022/10/28 07:21:27;;;;;;;;;;;;;;;;;;4853933;29;20052;-68
2022/10/28 07:23:53;;;;;;;17.77;5.32;;;;;;;;;;4855081;29;19915;-67
2022/10/28 07:26:19;;;;;;;;;;;;;;;;;;4858888;29;20067;-68
2022/10/28 07:28:45;;;;;;;24.58;6.13;;;;;;;;;;4854250;29;20390;-67
2022/10/28 07:31:11;;;;;;;18.63;5.38;;;;;;;;;;4855695;29;20417;-67
2022/10/28 07:33:37;;;;;;;;;;;;;;;;;;4857379;29;20623;-66
2022/10/28 07:36:04;;;;;;;18.80;5.72;;;;;;;;;;4856155;29;20412;-66
2022/10/28 07:38:30;;;;;;;17.10;6.03;;;;;;;;;;4852901;29;20468;-65
2022/10/28 07:40:56;;;;;;;;;;;;;;;;;;4856307;29;20056;-66
2022/10/28 07:43:22;;;;;;;21.00;6.10;;;;;;;;;;4852903;29;20458;-66
2022/10/28 07:45:54;;;;;;;17.88;5.90;;;;;;;;;;4854273;29;20576;-66
2022/10/28 07:48:21;;;;;;;20.58;6.43;;;;;;;;;;4855088;29;20126;-67
2022/10/28 07:50:47;;;;;;;16.77;5.78;;;;;;;;;;4853707;29;20047;-67
2022/10/28 07:53:13;;;;;;;;;;;;;;;;;;4856669;29;20319;-66
2022/10/28 07:55:39;;;;;;;16.02;6.22;;;;;;;;;;4853088;29;19927;-66
2022/10/28 07:58:05;;;;;;;;;;;;;;;;;;4856106;29;20036;-66
2022/10/28 08:00:31;;;;;;;21.13;7.45;;;;;;;;;;4851915;29;20395;-66
2022/10/28 08:02:57;;;;;;;17.80;6.60;;;;;;;;;;4855907;29;20140;-66
2022/10/28 08:05:23;;;;;;;12.63;5.63;;;;;;;;;;4852023;29;20121;-65
2022/10/28 08:07:49;;;;;;;22.00;7.38;;;;;;;;;;4856492;29;20143;-65
2022/10/28 08:10:15;;;;;;;19.52;7.20;;;;;;;;;;4853255;29;20394;-65
2022/10/28 08:12:42;;;;;;;19.70;6.78;;;;;;;;;;4853371;29;20037;-66
2022/10/28 08:15:09;;;;;;;18.80;7.85;;;;;;;;;;4854212;29;20033;-66
2022/10/28 08:17:35;;;;;;;22.10;7.78;;;;;;;;;;4851391;29;20160;-65
2022/10/28 08:20:01;;;;;;;21.55;8.60;;;;;;;;;;4858714;29;20652;-66
2022/10/28 08:22:27;;;;;;;17.90;7.97;;;;;;;;;;4851949;29;20121;-66
2022/10/28 08:24:53;;;;;;;19.83;7.25;;;;;;;;;;4854210;29;20094;-67
2022/10/28 08:27:19;;;;;;;20.85;7.38;;;;;;;;;;4853221;29;20493;-67
2022/10/28 08:29:45;;;;;;;18.60;7.25;;;;;;;;;;4850538;29;20037;-67
2022/10/28 08:32:12;;;;;;;19.77;7.00;;;;;;;;;;4856299;29;20059;-67
2022/10/28 08:34:38;;;;;;;17.35;6.45;;;;;;;;;;4852784;29;20037;-67
2022/10/28 08:37:04;;;;;;;16.20;5.80;;;;;;;;;;4859983;29;20048;-67
2022/10/28 08:39:30;;;;;;;20.90;5.63;;;;;;;;;;4857024;29;20164;-67
2022/10/28 08:42:09;;;;;;;13.95;5.20;;;;;;;;;;4858752;29;20120;-67
2022/10/28 08:44:54;;;;;;;17.38;5.43;;;;;;;;;;4850905;29;20621;-66
2022/10/28 08:47:32;;;;;;;21.75;5.47;;;;;;;;;;4859974;29;20037;-66
2022/10/28 08:50:01;;;;;;;16.58;5.07;;;;;;;;;;4857816;29;20380;-67
2022/10/28 08:52:27;;;;;;;12.93;4.32;;;;;;;;;;4855409;29;20093;-67
2022/10/28 08:54:54;;;;;;;17.42;4.65;;;;;;;;;;4859999;29;20318;-67
2022/10/28 08:57:25;;;;;;;18.63;5.15;;;;;;;;;;4856337;29;20056;-67
2022/10/28 08:59:53;;;;;;;14.02;4.65;;;;;;;;;;4858337;29;20557;-67
2022/10/28 09:02:23;;;;;;;15.07;4.60;;;;;;;;;;4861592;29;20033;-67
2022/10/28 09:05:10;;;;;;;17.70;5.20;;;;;;;;;;4859727;29;20056;-67
2022/10/28 09:07:36;;;;;;;17.98;5.32;;;;;;;;;;4851823;29;20059;-67
2022/10/28 09:10:04;;;;;;;15.68;4.60;;;;;;;;;;4858872;29;20379;-67
2022/10/28 09:12:42;;;;;;;14.63;4.57;;;;;;;;;;4852343;29;20122;-67
2022/10/28 09:15:28;;;;;;;14.68;4.35;;;;;;;;;;4860835;29;20016;-67
2022/10/28 09:17:54;;;;;;;;;;;;;;;;;;4856961;29;20481;-67
2022/10/28 09:20:23;;;;;;;16.92;4.20;;;;;;;;;;4862942;29;19927;-67
2022/10/28 09:22:57;;;;;;;15.52;4.18;;;;;;;;;;4858351;29;20029;-67
2022/10/28 09:25:26;;;;;;;14.20;4.13;;;;;;;;;;4854266;29;20417;-68
2022/10/28 09:28:04;;;;;;;14.27;4.63;;;;;;;;;;4857235;29;20044;-67
2022/10/28 09:30:30;;;;;;;12.95;4.00;;;;;;;;;;4854164;29;20052;-67
2022/10/28 09:33:09;;;;;;;16.80;4.75;;;;;;;;;;4857879;29;20073;-67
2022/10/28 09:35:41;;;;;;;12.70;4.07;;;;;;;;;;4854670;29;20293;-67
2022/10/28 09:38:07;;;;;;;12.38;3.65;;;;;;;;;;4855864;29;20157;-67
2022/10/28 09:40:34;;;;;;;16.80;4.70;;;;;;;;;;4852999;29;20368;-67
2022/10/28 09:43:06;;;;;;;18.20;4.80;;;;;;;;;;4857466;29;20109;-67
2022/10/28 09:45:35;;;;;;;13.80;4.47;;;;;;;;;;4855059;29;20081;-67
2022/10/28 09:48:04;;;;;;;17.88;5.03;;;;;;;;;;4857331;29;20033;-68
2022/10/28 09:50:32;;;;;;;18.75;4.75;;;;;;;;;;4852861;29;20033;-68
2022/10/28 09:53:10;;;;;;;15.68;4.32;;;;;;;;;;4848744;29;20041;-68
2022/10/28 09:55:37;;;;;;;18.63;4.63;;;;;;;;;;4854317;29;20048;-68
2022/10/28 09:58:04;;;;;;;11.68;3.80;;;;;;;;;;4860674;29;20029;-68
2022/10/28 10:00:30;;;;;;;15.75;4.35;;;;;;;;;;4855146;29;20347;-68
2022/10/28 10:02:56;;;;;;;16.27;4.43;;;;;;;;;;4858677;29;20033;-67
2022/10/28 10:05:23;;;;;;;16.10;3.95;;;;;;;;;;4853503;29;20135;-68
2022/10/28 10:07:58;;;;;;;13.38;3.95;;;;;;;;;;4855481;29;20037;-68
2022/10/28 10:10:26;;;;;;;13.05;3.55;;;;;;;;;;4855272;29;20555;-67
2022/10/28 10:12:53;;;;;;;12.23;3.50;;;;;;;;;;4856454;29;20055;-67
2022/10/28 10:15:25;;;;;;;13.45;3.63;;;;;;;;;;4856188;29;20564;-67
2022/10/28 10:17:54;;;;;;;12.88;3.47;;;;;;;;;;4856566;29;20036;-67
2022/10/28 10:20:21;;;;;;;17.42;4.15;;;;;;;;;;4855977;29;20397;-67
2022/10/28 10:22:48;;;;;;;13.50;3.50;;;;;;;;;;4856527;29;20032;-67
2022/10/28 10:25:19;;;;;;;15.23;4.28;;;;;;;;;;4856420;29;20033;-67
2022/10/28 10:27:56;;;;;;;18.80;5.35;;;;;;;;;;4854304;29;20749;-67
2022/10/28 10:30:25;;;;;;;17.02;4.40;;;;;;;;;;4855950;29;20041;-67
2022/10/28 10:32:51;;;;;;;20.27;4.90;;;;;;;;;;4857303;29;20683;-67
2022/10/28 10:35:23;;;;;;;23.25;5.63;;;;;;;;;;4854799;29;20564;-68
2022/10/28 10:37:49;;;;;;;13.80;4.43;;;;;;;;;;4855685;29;20116;-66
2022/10/28 10:40:24;;;;;;;15.02;4.22;;;;;;;;;;4857060;29;20062;-68
2022/10/28 10:42:51;;;;;;;15.15;4.63;;;;;;;;;;4857444;29;20473;-67
2022/10/28 10:45:17;;;;;;;19.17;4.47;;;;;;;;;;4855455;29;20037;-67
2022/10/28 10:47:43;;;;;;;11.32;3.70;;;;;;;;;;4853331;29;20172;-67
2022/10/28 10:50:21;;;;;;;15.77;4.32;;;;;;;;;;4853840;29;20033;-67
2022/10/28 10:52:49;;;;;;;17.48;4.53;;;;;;;;;;4852379;29;20068;-67
2022/10/28 10:55:20;;;;;;;15.23;4.07;;;;;;;;;;4855464;29;20064;-68
2022/10/28 10:57:47;;;;;;;17.83;4.05;;;;;;;;;;4850891;29;20025;-67
2022/10/28 11:00:17;;;;;;;13.20;4.07;;;;;;;;;;4856622;29;20148;-67
2022/10/28 11:02:45;;;;;;;15.85;4.38;;;;;;;;;;4853879;29;20812;-67
2022/10/28 11:05:12;;;;;;;13.50;4.50;;;;;;;;;;4856788;29;20044;-67
2022/10/28 11:07:39;;;;;;;14.20;3.75;;;;;;;;;;4852879;29;20041;-67
2022/10/28 11:10:06;;;;;;;16.25;4.40;;;;;;;;;;4856764;29;20045;-67
2022/10/28 11:12:37;;;;;;;14.05;3.80;;;;;;;;;;4849696;29;20458;-68
2022/10/28 11:15:20;;;;;;;14.48;3.85;;;;;;;;;;4851031;29;20500;-67
2022/10/28 11:18:02;;;;;;;12.98;3.45;;;;;;;;;;4848641;29;20037;-67
2022/10/28 11:20:34;;;;;;;13.10;3.65;;;;;;;;;;4848451;29;20033;-67
2022/10/28 11:23:08;;;;;;;13.88;3.30;;;;;;;;;;4851812;29;20065;-67
2022/10/28 11:25:34;;;;;;;12.07;3.47;;;;;;;;;;4848718;29;20928;-67
2022/10/28 11:28:00;;;;;;;13.32;3.95;;;;;;;;;;4852821;29;20071;-67
2022/10/28 11:30:34;;;;;;;12.05;3.35;;;;;;;;;;4848279;29;20044;-67
2022/10/28 11:33:18;;;;;;;18.33;4.77;;;;;;;;;;4853967;29;20383;-68
2022/10/28 11:35:44;;;;;;;16.27;4.10;;;;;;;;;;4852888;29;20064;-68
2022/10/28 11:38:13;;;;;;;11.75;3.30;;;;;;;;;;4853454;29;20060;-68
2022/10/28 11:40:48;;;;;;;13.80;3.50;;;;;;;;;;4849915;29;20112;-68
2022/10/28 11:43:22;;;;;;;14.75;3.63;;;;;;;;;;4853553;29;20037;-68
2022/10/28 11:46:08;;;;;;;13.13;3.33;;;;;;;;;;4852347;29;20109;-69
2022/10/28 11:48:47;;;;;;;13.98;3.70;;;;;;;;;;4850025;29;20060;-69
2022/10/28 11:51:13;;;;;;;12.32;3.33;;;;;;;;;;4851301;29;20029;-69
2022/10/28 11:53:45;;;;;;;12.98;4.10;;;;;;;;;;4848603;29;20067;-69
2022/10/28 11:56:44;;;;;;;13.90;3.38;;;;;;;;;;4850827;29;20032;-69
2022/10/28 11:59:10;;;;;;;13.50;3.50;;;;;;;;;;4799926;29;20460;-69
2022/10/28 12:01:45;;;;;;;11.50;3.60;;;;;;;;;;4793020;29;20538;-66
2022/10/28 12:04:11;;;;;;;13.82;3.25;;;;;;;;;;4798535;29;20669;-68
2022/10/28 12:06:42;;;;;;;13.75;3.83;;;;;;;;;;4774792;29;20361;-68
2022/10/28 12:09:14;;;;;;;14.75;3.92;;;;;;;;;;4783171;29;20679;-68
2022/10/28 12:12:05;;;;;;;15.32;3.60;;;;;;;;;;4797908;29;20457;-69
2022/10/28 12:14:50;;;;;;;12.82;3.30;;;;;;;;;;4780917;29;20059;-68
2022/10/28 12:17:22;;;;;;;11.75;3.40;;;;;;;;;;4803732;29;20038;-68
2022/10/28 12:20:11;;;;;;;16.73;3.90;;;;;;;;;;4782022;29;20042;-68
2022/10/28 12:22:48;;;;;;;11.77;3.60;;;;;;;;;;4794716;29;20667;-68
2022/10/28 12:25:17;;;;;;;13.77;4.00;;;;;;;;;;4804093;29;20109;-68
2022/10/28 12:27:46;;;;;;;13.15;4.05;;;;;;;;;;4779356;29;20698;-69
2022/10/28 12:30:20;;;;;;;12.77;3.47;;;;;;;;;;4780465;29;20050;-70
2022/10/28 12:32:48;;;;;;;14.18;4.00;;;;;;;;;;4795558;29;20057;-67
2022/10/28 12:35:17;;;;;;;16.20;3.50;;;;;;;;;;4828455;29;20049;-68
2022/10/28 12:37:52;;;;;;;12.32;3.42;;;;;;;;;;4849964;29;20044;-69
2022/10/28 12:40:21;;;;;;;13.32;3.40;;;;;;;;;;4853122;29;20076;-68
2022/10/28 12:42:53;;;;;;;11.00;3.40;;;;;;;;;;4851344;29;20041;-68
2022/10/28 12:45:21;;;;;;;13.02;3.35;;;;;;;;;;4855055;29;20205;-68
2022/10/28 12:48:07;;;;;;;17.02;3.38;;;;;;;;;;4856422;29;20088;-68
2022/10/28 12:50:44;;;;;;;14.82;3.88;;;;;;;;;;4832845;29;20553;-69
2022/10/28 12:53:40;;;;;;;13.20;3.78;;;;;;;;;;4851269;29;20171;-69
2022/10/28 12:56:10;;;;;;;16.60;4.05;;;;;;;;;;4829290;29;20430;-68
2022/10/28 12:58:39;;;;;;;15.73;3.95;;;;;;;;;;4825145;29;20045;-68
2022/10/28 13:01:11;;;;;;;14.18;3.92;;;;;;;;;;4814869;29;20037;-68
2022/10/28 13:03:37;;;;;;;11.20;3.15;;;;;;;;;;4826435;29;20046;-69
2022/10/28 13:06:06;;;;;;;15.57;3.75;;;;;;;;;;4829142;29;20048;-69
2022/10/28 13:08:44;;;;;;;17.27;3.50;;;;;;;;;;4831918;29;20037;-69
2022/10/28 13:11:19;;;;;;;14.65;3.75;;;;;;;;;;4834445;29;20030;-68
2022/10/28 13:13:57;;;;;;;13.43;3.67;;;;;;;;;;4830234;29;20535;-69
2022/10/28 13:16:35;;;;;;;15.82;3.70;;;;;;;;;;4827203;29;20665;-67
2022/10/28 13:19:10;;;;;;;16.85;3.80;;;;;;;;;;4827041;29;20042;-69
2022/10/28 13:21:43;;;;;;;12.30;3.20;;;;;;;;;;4832802;29;20041;-68
2022/10/28 13:24:32;;;;;;;14.65;3.78;;;;;;;;;;4832464;29;20044;-69
2022/10/28 13:27:01;;;;;;;15.48;3.92;;;;;;;;;;4836050;29;20382;-68
2022/10/28 13:29:30;;;;;;;15.30;3.38;;;;;;;;;;4815281;29;20049;-69
2022/10/28 13:31:56;;;;;;;10.93;3.35;;;;;;;;;;4842031;29;20041;-68
2022/10/28 13:34:30;;;;;;;13.68;3.72;;;;;;;;;;4855159;29;20571;-69
2022/10/28 13:36:58;;;;;;;13.75;4.07;;;;;;;;;;4854944;29;20133;-69
2022/10/28 13:39:33;;;;;;;14.77;4.00;;;;;;;;;;4848075;29;20041;-70
2022/10/28 13:42:22;;;;;;;15.52;3.78;;;;;;;;;;4855027;29;20070;-68
2022/10/28 13:44:51;;;;;;;13.70;4.03;;;;;;;;;;4816195;29;20057;-71
2022/10/28 13:47:17;;;;;;;14.20;3.60;;;;;;;;;;4827796;29;20729;-69
2022/10/28 13:50:02;;;;;;;12.50;3.42;;;;;;;;;;4826799;29;20166;-69
2022/10/28 13:52:28;;;;;;;16.50;3.65;;;;;;;;;;4824576;29;20317;-70
2022/10/28 13:54:59;;;;;;;13.90;3.55;;;;;;;;;;4828728;29;20417;-68
2022/10/28 13:57:31;;;;;;;12.25;3.50;;;;;;;;;;4807749;29;20030;-68
2022/10/28 13:59:59;;;;;;;13.52;3.58;;;;;;;;;;4831209;29;20053;-69
2022/10/28 14:02:39;;;;;;;14.95;3.83;;;;;;;;;;4826345;29;20698;-69
2022/10/28 14:05:07;;;;;;;14.05;4.10;;;;;;;;;;4828535;29;20382;-68
2022/10/28 14:07:36;;;;;;;12.77;3.92;;;;;;;;;;4827865;29;20576;-70
2022/10/28 14:10:13;;;;;;;13.55;3.65;;;;;;;;;;4814237;29;20046;-68
2022/10/28 14:12:41;;;;;;;13.75;4.05;;;;;;;;;;4816461;29;20185;-68
2022/10/28 14:15:14;;;;;;;18.70;4.35;;;;;;;;;;4814319;29;20033;-69
2022/10/28 14:17:51;;;;;;;16.67;3.65;;;;;;;;;;4822285;29;20044;-68
2022/10/28 14:20:24;;;;;;;15.00;3.97;;;;;;;;;;4815581;29;20108;-69
2022/10/28 14:22:51;;;;;;;14.45;3.63;;;;;;;;;;4848927;29;20049;-69
2022/10/28 14:25:44;;;;;;;14.63;4.07;;;;;;;;;;4854222;29;20033;-69
2022/10/28 14:28:28;;;;;;;23.98;4.50;;;;;;;;;;4834408;29;20041;-69
2022/10/28 14:31:10;;;;;;;14.02;3.83;;;;;;;;;;4854941;29;20092;-69
2022/10/28 14:33:37;;;;;;;17.92;4.22;;;;;;;;;;4849307;29;20045;-68
2022/10/28 14:36:25;;;;;;;17.60;4.15;;;;;;;;;;4853548;29;20289;-70
2022/10/28 14:39:03;;;;;;;17.20;4.32;;;;;;;;;;4854075;29;20040;-70
2022/10/28 14:41:47;;;;;;;12.27;3.67;;;;;;;;;;4850150;29;20037;-68
2022/10/28 14:44:32;;;;;;;13.35;3.97;;;;;;;;;;4854696;29;20063;-68
2022/10/28 14:47:18;;;;;;;16.40;4.40;;;;;;;;;;4856864;29;20477;-67
2022/10/28 14:49:48;;;;;;;16.67;4.10;;;;;;;;;;4852197;29;20078;-68
2022/10/28 14:52:18;;;;;;;15.07;3.92;;;;;;;;;;4852724;29;20032;-70
2022/10/28 14:54:44;;;;;;;18.52;4.40;;;;;;;;;;4853118;29;20474;-68
2022/10/28 14:57:10;;;;;;;20.58;4.80;;;;;;;;;;4855592;29;20039;-68
2022/10/28 14:59:37;;;;;;;17.52;4.38;;;;;;;;;;4854198;29;20495;-68